Time;durP1;ratioP1;P1;durP2;ratioP2;P2;SDS_P1;SDS_P2;PMS_P1;PMS_P2;Temp;Humidity;BMP_temperature;BMP_pressure;BME280_temperature;BME280_humidity;BME280_pressure;Samples;Min_cycle;Max_cycle;Signal;HPM_P1;HPM_P2
2023/04/18 00:00:11;;;;;;;12.02;9.52;;;;;;;;;;5042809;28;20655;-85
2023/04/18 00:02:38;;;;;;;11.70;8.60;;;;;;;;;;5076747;28;20583;-84
2023/04/18 00:05:05;;;;;;;13.68;8.98;;;;;;;;;;5058908;28;20212;-84
2023/04/18 00:07:31;;;;;;;11.35;8.77;;;;;;;;;;5048138;28;20597;-84
2023/04/18 00:09:57;;;;;;;10.50;9.20;;;;;;;;;;5065550;28;20272;-84
2023/04/18 00:12:23;;;;;;;15.25;10.25;;;;;;;;;;5044152;28;20192;-83
2023/04/18 00:14:50;;;;;;;10.77;8.48;;;;;;;;;;5042562;28;20664;-84
2023/04/18 00:17:17;;;;;;;12.20;8.60;;;;;;;;;;5059867;28;20177;-84
2023/04/18 00:19:43;;;;;;;17.05;9.65;;;;;;;;;;5058913;28;20177;-84
2023/04/18 00:22:11;;;;;;;12.38;8.52;;;;;;;;;;5076879;28;20226;-84
2023/04/18 00:24:38;;;;;;;11.80;8.15;;;;;;;;;;5076731;28;20248;-84
2023/04/18 00:27:04;;;;;;;11.82;8.02;;;;;;;;;;5076763;28;20165;-84
2023/04/18 00:29:30;;;;;;;11.35;8.98;;;;;;;;;;5076309;28;20176;-84
2023/04/18 00:31:57;;;;;;;13.75;8.35;;;;;;;;;;5058400;28;20173;-84
2023/04/18 00:34:24;;;;;;;11.52;8.55;;;;;;;;;;5076050;28;20189;-84
2023/04/18 00:36:50;;;;;;;10.50;8.55;;;;;;;;;;5057791;28;20228;-84
2023/04/18 00:39:16;;;;;;;11.60;7.80;;;;;;;;;;5041822;28;20216;-84
2023/04/18 00:41:42;;;;;;;13.77;8.20;;;;;;;;;;5057499;28;20173;-84
2023/04/18 00:44:08;;;;;;;18.83;8.23;;;;;;;;;;5075752;28;20188;-84
2023/04/18 00:46:34;;;;;;;10.35;7.90;;;;;;;;;;5041122;28;20234;-84
2023/04/18 00:49:00;;;;;;;10.68;7.80;;;;;;;;;;5041391;28;20244;-84
2023/04/18 00:51:27;;;;;;;12.50;8.70;;;;;;;;;;5075842;28;20180;-84
2023/04/18 00:53:53;;;;;;;11.45;8.45;;;;;;;;;;5075018;28;20231;-84
2023/04/18 00:56:19;;;;;;;15.18;8.73;;;;;;;;;;5075644;28;20295;-84
2023/04/18 00:58:45;;;;;;;15.73;10.93;;;;;;;;;;5057585;28;20547;-84
2023/04/18 01:01:12;;;;;;;12.35;8.68;;;;;;;;;;5058320;28;20539;-84
2023/04/18 01:03:38;;;;;;;12.40;8.07;;;;;;;;;;5042272;28;20177;-83
2023/04/18 01:06:04;;;;;;;13.63;8.93;;;;;;;;;;5081825;28;20267;-84
2023/04/18 01:08:30;;;;;;;12.23;8.40;;;;;;;;;;5042148;28;20641;-84
2023/04/18 01:10:56;;;;;;;13.77;8.27;;;;;;;;;;5042616;28;20227;-84
2023/04/18 01:13:22;;;;;;;13.45;9.07;;;;;;;;;;5058874;28;20200;-84
2023/04/18 01:15:50;;;;;;;12.32;9.40;;;;;;;;;;5044711;28;20223;-84
2023/04/18 01:18:16;;;;;;;12.43;8.45;;;;;;;;;;5042566;28;20275;-84
2023/04/18 01:20:47;;;;;;;16.38;10.35;;;;;;;;;;5077057;28;20173;-84
2023/04/18 01:23:13;;;;;;;10.77;7.80;;;;;;;;;;5077186;28;20172;-83
2023/04/18 01:25:40;;;;;;;15.75;8.98;;;;;;;;;;5058461;28;20173;-84
2023/04/18 01:28:06;;;;;;;12.73;8.93;;;;;;;;;;5042777;28;20178;-84
2023/04/18 01:30:35;;;;;;;12.90;9.65;;;;;;;;;;5058350;28;20195;-84
2023/04/18 01:33:01;;;;;;;11.60;8.88;;;;;;;;;;5058119;28;20267;-84
2023/04/18 01:35:28;;;;;;;10.13;8.35;;;;;;;;;;5075739;28;20196;-84
2023/04/18 01:37:54;;;;;;;16.23;8.85;;;;;;;;;;5041353;28;20189;-84
2023/04/18 01:40:20;;;;;;;17.50;9.35;;;;;;;;;;5076503;28;20647;-84
2023/04/18 01:42:46;;;;;;;12.23;8.95;;;;;;;;;;5040876;28;20188;-84
2023/04/18 01:45:12;;;;;;;11.65;8.07;;;;;;;;;;5040747;28;20185;-84
2023/04/18 01:47:39;;;;;;;10.73;8.10;;;;;;;;;;5057262;28;20176;-84
2023/04/18 01:50:05;;;;;;;12.80;8.25;;;;;;;;;;5057145;28;20228;-84
2023/04/18 01:52:31;;;;;;;14.65;9.25;;;;;;;;;;5075302;28;20184;-84
2023/04/18 01:54:57;;;;;;;11.43;8.93;;;;;;;;;;5075180;28;20203;-84
2023/04/18 01:57:23;;;;;;;15.10;9.13;;;;;;;;;;5041142;28;20546;-84
2023/04/18 01:59:49;;;;;;;12.20;8.10;;;;;;;;;;5057173;28;20263;-84
2023/04/18 02:02:15;;;;;;;13.35;7.75;;;;;;;;;;5057096;28;20180;-84
2023/04/18 02:04:41;;;;;;;16.88;8.95;;;;;;;;;;5056840;28;20176;-84
2023/04/18 02:07:07;;;;;;;13.27;8.73;;;;;;;;;;5040104;28;20184;-84
2023/04/18 02:09:33;;;;;;;13.18;9.35;;;;;;;;;;5074480;28;20168;-83
2023/04/18 02:12:01;;;;;;;10.23;7.82;;;;;;;;;;5063477;28;20535;-84
2023/04/18 02:14:29;;;;;;;10.35;8.13;;;;;;;;;;5058381;28;20169;-83
2023/04/18 02:16:55;;;;;;;11.38;8.38;;;;;;;;;;5062012;28;20606;-84
2023/04/18 02:19:23;;;;;;;14.57;8.75;;;;;;;;;;5060982;28;20214;-84
2023/04/18 02:21:49;;;;;;;15.52;9.60;;;;;;;;;;5078612;28;20181;-84
2023/04/18 02:24:15;;;;;;;17.17;8.57;;;;;;;;;;5061092;28;20173;-83
2023/04/18 02:26:41;;;;;;;14.07;9.05;;;;;;;;;;5060618;28;20177;-83
2023/04/18 02:29:07;;;;;;;11.50;8.50;;;;;;;;;;5060564;28;20314;-83
2023/04/18 02:31:33;;;;;;;10.35;8.48;;;;;;;;;;5060585;28;20204;-84
2023/04/18 02:33:59;;;;;;;10.85;7.85;;;;;;;;;;5060389;28;20180;-84
2023/04/18 02:36:26;;;;;;;12.40;9.15;;;;;;;;;;5060083;28;20257;-83
2023/04/18 02:38:53;;;;;;;14.75;10.25;;;;;;;;;;5059997;28;20173;-84
2023/04/18 02:41:19;;;;;;;11.57;8.88;;;;;;;;;;5078439;28;20664;-84
2023/04/18 02:43:45;;;;;;;10.10;8.82;;;;;;;;;;5059622;28;20179;-83
2023/04/18 02:46:11;;;;;;;12.30;9.70;;;;;;;;;;5059963;28;20192;-84
2023/04/18 02:48:37;;;;;;;13.98;9.15;;;;;;;;;;5078146;28;20179;-83
2023/04/18 02:51:04;;;;;;;12.52;9.40;;;;;;;;;;5080413;28;20172;-84
2023/04/18 02:53:30;;;;;;;10.70;8.95;;;;;;;;;;5079821;28;20226;-84
2023/04/18 02:55:56;;;;;;;9.70;8.52;;;;;;;;;;5097728;28;20200;-84
2023/04/18 02:58:22;;;;;;;15.07;9.05;;;;;;;;;;5063641;28;20208;-84
2023/04/18 03:00:49;;;;;;;16.58;10.52;;;;;;;;;;5079665;28;20180;-84
2023/04/18 03:03:15;;;;;;;13.57;9.48;;;;;;;;;;5063680;28;20715;-83
2023/04/18 03:05:42;;;;;;;10.82;9.35;;;;;;;;;;5097857;28;20197;-83
2023/04/18 03:08:08;;;;;;;12.88;9.13;;;;;;;;;;5098101;28;20168;-83
2023/04/18 03:10:34;;;;;;;13.02;10.02;;;;;;;;;;5079615;28;20198;-83
2023/04/18 03:13:00;;;;;;;15.13;10.98;;;;;;;;;;5080025;28;20190;-83
2023/04/18 03:15:27;;;;;;;12.95;9.27;;;;;;;;;;5079536;28;20203;-84
2023/04/18 03:17:54;;;;;;;12.52;9.68;;;;;;;;;;5079616;28;20624;-84
2023/04/18 03:20:20;;;;;;;12.63;9.38;;;;;;;;;;5079765;28;20634;-84
2023/04/18 03:22:46;;;;;;;10.98;9.05;;;;;;;;;;5078902;28;20273;-84
2023/04/18 03:25:12;;;;;;;14.02;10.60;;;;;;;;;;5079812;28;20203;-84
2023/04/18 03:27:39;;;;;;;18.55;10.75;;;;;;;;;;5060653;28;20650;-84
2023/04/18 03:30:05;;;;;;;16.88;9.65;;;;;;;;;;5064236;28;20541;-84
2023/04/18 03:32:35;;;;;;;12.43;9.80;;;;;;;;;;5062763;28;20217;-84
2023/04/18 03:35:01;;;;;;;15.60;11.02;;;;;;;;;;5062977;28;20223;-84
2023/04/18 03:37:27;;;;;;;15.55;10.10;;;;;;;;;;5079283;28;20184;-84
2023/04/18 03:39:53;;;;;;;15.52;11.38;;;;;;;;;;5062561;28;20741;-83
2023/04/18 03:42:19;;;;;;;14.30;10.85;;;;;;;;;;5062612;28;20603;-84
2023/04/18 03:44:45;;;;;;;14.18;10.40;;;;;;;;;;5063039;28;20180;-84
2023/04/18 03:47:13;;;;;;;13.10;10.82;;;;;;;;;;5079012;28;20225;-83
2023/04/18 03:49:39;;;;;;;15.07;10.88;;;;;;;;;;5078806;28;20234;-84
2023/04/18 03:52:06;;;;;;;15.13;10.65;;;;;;;;;;5062596;28;20188;-83
2023/04/18 03:54:32;;;;;;;20.88;11.48;;;;;;;;;;5097022;28;20199;-83
2023/04/18 03:57:01;;;;;;;15.63;10.93;;;;;;;;;;5062174;28;20596;-83
2023/04/18 03:59:28;;;;;;;15.55;11.38;;;;;;;;;;5097077;28;20176;-83
2023/04/18 04:01:54;;;;;;;13.32;10.40;;;;;;;;;;5078610;28;20181;-83
2023/04/18 04:04:20;;;;;;;18.80;12.30;;;;;;;;;;5062189;28;20267;-83
2023/04/18 04:06:46;;;;;;;17.45;11.02;;;;;;;;;;5061603;28;20222;-83
2023/04/18 04:09:12;;;;;;;16.48;11.52;;;;;;;;;;5096554;28;20172;-83
2023/04/18 04:11:39;;;;;;;16.48;11.63;;;;;;;;;;5079167;28;20266;-83
2023/04/18 04:14:05;;;;;;;13.48;11.68;;;;;;;;;;5078818;28;20165;-83
2023/04/18 04:16:31;;;;;;;16.67;11.68;;;;;;;;;;5085847;28;20218;-83
2023/04/18 04:18:57;;;;;;;16.60;11.98;;;;;;;;;;5058529;28;20189;-83
2023/04/18 04:21:23;;;;;;;19.08;12.60;;;;;;;;;;5024364;28;20205;-83
2023/04/18 04:23:49;;;;;;;17.55;12.13;;;;;;;;;;5056714;28;20268;-83
2023/04/18 04:26:15;;;;;;;16.98;11.63;;;;;;;;;;5055962;28;20272;-83
2023/04/18 04:28:42;;;;;;;22.33;13.70;;;;;;;;;;5022841;28;20295;-83
2023/04/18 04:31:09;;;;;;;19.40;13.02;;;;;;;;;;5056651;28;20175;-83
2023/04/18 04:33:37;;;;;;;21.50;12.63;;;;;;;;;;5055454;28;20586;-82
2023/04/18 04:36:04;;;;;;;15.82;11.05;;;;;;;;;;5040168;28;20200;-83
2023/04/18 04:38:30;;;;;;;15.40;12.32;;;;;;;;;;5022447;28;20185;-83
2023/04/18 04:40:57;;;;;;;19.17;11.18;;;;;;;;;;5021857;28;20215;-83
2023/04/18 04:43:23;;;;;;;20.90;12.43;;;;;;;;;;5055708;28;20185;-83
2023/04/18 04:45:51;;;;;;;18.88;14.40;;;;;;;;;;5057867;28;20184;-83
2023/04/18 04:48:18;;;;;;;25.15;13.07;;;;;;;;;;5054995;28;20172;-83
2023/04/18 04:50:50;;;;;;;15.15;11.82;;;;;;;;;;5054805;28;20236;-83
2023/04/18 04:53:16;;;;;;;20.20;13.77;;;;;;;;;;5056204;28;20158;-82
2023/04/18 04:55:42;;;;;;;20.02;12.77;;;;;;;;;;5056451;28;20218;-82
2023/04/18 04:58:09;;;;;;;24.15;13.25;;;;;;;;;;5038539;28;20185;-83
2023/04/18 05:00:35;;;;;;;19.08;13.27;;;;;;;;;;5022556;28;20178;-84
2023/04/18 05:03:01;;;;;;;16.70;12.00;;;;;;;;;;5021371;28;20192;-84
2023/04/18 05:05:27;;;;;;;21.08;12.93;;;;;;;;;;5054316;28;20181;-84
2023/04/18 05:07:53;;;;;;;16.00;12.48;;;;;;;;;;5056101;28;20172;-85
2023/04/18 05:10:19;;;;;;;19.05;13.55;;;;;;;;;;5055457;28;20633;-84
2023/04/18 05:12:45;;;;;;;15.52;12.32;;;;;;;;;;5022384;28;20212;-81
2023/04/18 05:15:12;;;;;;;14.98;11.98;;;;;;;;;;5055799;28;20347;-80
2023/04/18 05:17:38;;;;;;;23.27;13.88;;;;;;;;;;5056188;28;20204;-80
2023/04/18 05:20:04;;;;;;;22.00;12.88;;;;;;;;;;5054280;28;20177;-80
2023/04/18 05:22:30;;;;;;;15.10;12.35;;;;;;;;;;5055654;28;20198;-79
2023/04/18 05:24:56;;;;;;;19.77;14.13;;;;;;;;;;5054123;28;20179;-80
2023/04/18 05:27:22;;;;;;;17.73;13.93;;;;;;;;;;5054641;28;20582;-80
2023/04/18 05:29:49;;;;;;;18.27;12.20;;;;;;;;;;5021317;28;20665;-80
2023/04/18 05:32:15;;;;;;;16.58;12.43;;;;;;;;;;5054636;28;20535;-80
2023/04/18 05:34:41;;;;;;;18.63;13.18;;;;;;;;;;5054563;28;20174;-80
2023/04/18 05:37:07;;;;;;;19.38;12.55;;;;;;;;;;5021432;28;20416;-80
2023/04/18 05:39:33;;;;;;;15.02;12.65;;;;;;;;;;5021240;28;20233;-80
2023/04/18 05:42:00;;;;;;;16.92;12.95;;;;;;;;;;5054350;28;20185;-80
2023/04/18 05:44:26;;;;;;;16.75;12.95;;;;;;;;;;5022429;28;20517;-80
2023/04/18 05:46:52;;;;;;;16.30;12.80;;;;;;;;;;5056274;28;20208;-79
2023/04/18 05:49:19;;;;;;;17.77;13.00;;;;;;;;;;5021364;28;20305;-79
2023/04/18 05:51:45;;;;;;;16.25;12.30;;;;;;;;;;5022175;28;20220;-79
2023/04/18 05:54:11;;;;;;;15.93;11.60;;;;;;;;;;5056223;28;20173;-79
2023/04/18 05:56:38;;;;;;;17.73;12.30;;;;;;;;;;5055762;28;20560;-78
2023/04/18 05:59:04;;;;;;;15.82;12.50;;;;;;;;;;5055272;28;20181;-78
2023/04/18 06:01:31;;;;;;;15.30;12.02;;;;;;;;;;5047367;28;20246;-79
2023/04/18 06:03:57;;;;;;;14.45;11.65;;;;;;;;;;5098670;28;20191;-79
2023/04/18 06:06:23;;;;;;;15.63;11.30;;;;;;;;;;5081569;28;20180;-80
2023/04/18 06:08:49;;;;;;;14.90;11.45;;;;;;;;;;5063126;28;20180;-80
2023/04/18 06:11:15;;;;;;;15.88;12.65;;;;;;;;;;5064842;28;20275;-80
2023/04/18 06:13:41;;;;;;;13.30;11.63;;;;;;;;;;5081022;28;20176;-80
2023/04/18 06:16:08;;;;;;;14.65;12.10;;;;;;;;;;5079883;28;21008;-79
2023/04/18 06:18:34;;;;;;;15.20;11.10;;;;;;;;;;5064648;28;20655;-79
2023/04/18 06:21:00;;;;;;;14.98;11.68;;;;;;;;;;5066081;28;20184;-79
2023/04/18 06:23:26;;;;;;;15.45;11.70;;;;;;;;;;5082856;28;20168;-79
2023/04/18 06:25:55;;;;;;;14.18;11.32;;;;;;;;;;5081370;28;20523;-80
2023/04/18 06:28:21;;;;;;;16.17;11.65;;;;;;;;;;5064254;28;20192;-78
2023/04/18 06:30:48;;;;;;;18.38;11.65;;;;;;;;;;5063260;28;20188;-79
2023/04/18 06:33:14;;;;;;;14.25;11.73;;;;;;;;;;5079739;28;20173;-78
2023/04/18 06:35:40;;;;;;;14.55;11.25;;;;;;;;;;5062248;28;20686;-79
2023/04/18 06:38:07;;;;;;;16.75;11.70;;;;;;;;;;5078780;28;20233;-79
2023/04/18 06:40:33;;;;;;;17.95;12.73;;;;;;;;;;5062698;28;20646;-78
2023/04/18 06:43:00;;;;;;;16.75;11.48;;;;;;;;;;5056095;28;20193;-79
2023/04/18 06:45:26;;;;;;;22.80;13.15;;;;;;;;;;5054712;28;20231;-79
2023/04/18 06:47:52;;;;;;;15.77;11.20;;;;;;;;;;5023374;28;20241;-79
2023/04/18 06:50:18;;;;;;;21.75;12.15;;;;;;;;;;5056158;28;20233;-79
2023/04/18 06:52:44;;;;;;;15.68;12.02;;;;;;;;;;5057035;28;20260;-79
2023/04/18 06:55:11;;;;;;;17.20;12.32;;;;;;;;;;5051452;28;20212;-80
2023/04/18 06:57:38;;;;;;;14.75;11.23;;;;;;;;;;5079901;28;20180;-79
2023/04/18 07:00:04;;;;;;;14.95;10.63;;;;;;;;;;5078593;28;20184;-79
2023/04/18 07:02:30;;;;;;;17.05;12.73;;;;;;;;;;5082520;28;20175;-79
2023/04/18 07:04:56;;;;;;;16.85;12.10;;;;;;;;;;5066092;28;20230;-79
2023/04/18 07:07:23;;;;;;;17.15;11.57;;;;;;;;;;5065176;28;20180;-79
2023/04/18 07:09:51;;;;;;;15.73;10.98;;;;;;;;;;5082424;28;20172;-80
2023/04/18 07:12:17;;;;;;;14.10;11.30;;;;;;;;;;5100152;28;20194;-78
2023/04/18 07:14:43;;;;;;;14.98;11.35;;;;;;;;;;5066015;28;20191;-79
2023/04/18 07:17:09;;;;;;;16.17;11.18;;;;;;;;;;5081568;28;20183;-78
2023/04/18 07:19:36;;;;;;;14.55;10.68;;;;;;;;;;5081472;28;20200;-79
2023/04/18 07:22:02;;;;;;;16.25;11.95;;;;;;;;;;5082508;28;20199;-79
2023/04/18 07:24:28;;;;;;;14.60;10.98;;;;;;;;;;5065350;28;20184;-79
2023/04/18 07:26:54;;;;;;;13.02;10.55;;;;;;;;;;5065478;28;20180;-78
2023/04/18 07:29:20;;;;;;;13.93;10.38;;;;;;;;;;5082319;28;20183;-79
2023/04/18 07:31:47;;;;;;;12.82;10.15;;;;;;;;;;5081095;28;20176;-78
2023/04/18 07:34:13;;;;;;;14.02;10.77;;;;;;;;;;5080620;28;20184;-79
2023/04/18 07:36:40;;;;;;;13.32;9.77;;;;;;;;;;5081140;28;20215;-78
2023/04/18 07:39:06;;;;;;;14.00;9.35;;;;;;;;;;5099531;28;20226;-79
2023/04/18 07:41:34;;;;;;;10.60;9.35;;;;;;;;;;5081406;28;20188;-79
2023/04/18 07:44:01;;;;;;;12.13;8.13;;;;;;;;;;5081232;28;20230;-79
2023/04/18 07:46:27;;;;;;;10.73;8.15;;;;;;;;;;5080565;28;20176;-79
2023/04/18 07:48:53;;;;;;;9.80;8.20;;;;;;;;;;5064922;28;20667;-81
2023/04/18 07:51:24;;;;;;;11.55;7.38;;;;;;;;;;5080842;28;20157;-79
2023/04/18 07:53:50;;;;;;;12.68;7.85;;;;;;;;;;5081264;28;20184;-80
2023/04/18 07:56:16;;;;;;;9.02;7.68;;;;;;;;;;5063842;28;20211;-79
2023/04/18 07:58:42;;;;;;;9.68;6.78;;;;;;;;;;5099016;28;20704;-80
2023/04/18 08:01:12;;;;;;;8.63;6.83;;;;;;;;;;5080981;28;20184;-79
2023/04/18 08:03:38;;;;;;;11.73;7.60;;;;;;;;;;5081182;28;20464;-79
2023/04/18 08:06:04;;;;;;;7.70;6.40;;;;;;;;;;5081312;28;20184;-81
2023/04/18 08:08:30;;;;;;;12.55;7.15;;;;;;;;;;5083172;28;20210;-80
2023/04/18 08:10:56;;;;;;;10.13;7.82;;;;;;;;;;5084565;28;20188;-80
2023/04/18 08:13:22;;;;;;;8.48;6.53;;;;;;;;;;5083017;28;20180;-80
2023/04/18 08:15:49;;;;;;;9.07;6.45;;;;;;;;;;5081141;28;20611;-80
2023/04/18 08:18:15;;;;;;;9.93;7.03;;;;;;;;;;5064544;28;20242;-80
2023/04/18 08:20:41;;;;;;;8.40;6.20;;;;;;;;;;5080323;28;20169;-80
2023/04/18 08:23:08;;;;;;;9.50;6.30;;;;;;;;;;5063792;28;20392;-79
2023/04/18 08:25:35;;;;;;;8.50;5.83;;;;;;;;;;5080493;28;20425;-80
2023/04/18 08:28:02;;;;;;;10.93;6.17;;;;;;;;;;5080024;28;20519;-80
2023/04/18 08:30:29;;;;;;;6.17;5.13;;;;;;;;;;5063945;28;20462;-82
2023/04/18 08:32:55;;;;;;;10.10;5.60;;;;;;;;;;5081746;28;20430;-82
2023/04/18 08:35:21;;;;;;;8.00;5.67;;;;;;;;;;5062333;28;20568;-81
2023/04/18 08:37:47;;;;;;;8.57;6.30;;;;;;;;;;5062719;28;20417;-80
2023/04/18 08:40:14;;;;;;;8.00;6.10;;;;;;;;;;5097103;28;20446;-80
2023/04/18 08:42:45;;;;;;;7.00;6.27;;;;;;;;;;5062543;28;20833;-81
2023/04/18 08:45:14;;;;;;;8.63;6.90;;;;;;;;;;5079418;28;20418;-81
2023/04/18 08:47:40;;;;;;;7.80;6.43;;;;;;;;;;5097631;28;20407;-81
2023/04/18 08:50:08;;;;;;;6.67;5.90;;;;;;;;;;5078519;28;20432;-81
2023/04/18 08:52:35;;;;;;;9.13;6.30;;;;;;;;;;5063249;28;20433;-80
2023/04/18 08:55:01;;;;;;;7.57;6.80;;;;;;;;;;5097202;28;20447;-82
2023/04/18 08:57:29;;;;;;;6.80;6.20;;;;;;;;;;5079597;28;20572;-81
2023/04/18 08:59:56;;;;;;;8.90;7.30;;;;;;;;;;5061658;28;20446;-83
2023/04/18 09:02:22;;;;;;;6.33;5.50;;;;;;;;;;5077635;28;20387;-81
2023/04/18 09:04:51;;;;;;;10.87;5.93;;;;;;;;;;5077270;28;20438;-82
2023/04/18 09:07:18;;;;;;;8.97;6.87;;;;;;;;;;5077017;28;20961;-82
2023/04/18 09:09:47;;;;;;;7.20;6.27;;;;;;;;;;5060937;28;20413;-82
2023/04/18 09:12:16;;;;;;;6.20;5.50;;;;;;;;;;5077328;28;20475;-81
2023/04/18 09:14:44;;;;;;;6.03;5.40;;;;;;;;;;5077473;28;20417;-82
2023/04/18 09:17:17;;;;;;;9.47;7.10;;;;;;;;;;5095307;28;20458;-82
2023/04/18 09:19:49;;;;;;;7.80;5.87;;;;;;;;;;5077149;28;20414;-81
2023/04/18 09:22:15;;;;;;;13.60;7.27;;;;;;;;;;5077047;28;20511;-82
2023/04/18 09:24:52;;;;;;;8.60;5.77;;;;;;;;;;5094746;28;20797;-82
2023/04/18 09:27:22;;;;;;;8.33;6.70;;;;;;;;;;5077679;28;20410;-82
2023/04/18 09:29:48;;;;;;;7.40;6.10;;;;;;;;;;5077064;28;20516;-80
2023/04/18 09:32:28;;;;;;;6.33;5.23;;;;;;;;;;5076560;28;20417;-81
2023/04/18 09:35:02;;;;;;;7.70;6.13;;;;;;;;;;5060580;28;20413;-81
2023/04/18 09:37:28;;;;;;;7.00;5.77;;;;;;;;;;5077269;28;20437;-81
2023/04/18 09:39:55;;;;;;;10.20;5.47;;;;;;;;;;5095429;28;20432;-80
2023/04/18 09:42:21;;;;;;;8.00;5.77;;;;;;;;;;5060152;28;20536;-81
2023/04/18 09:44:58;;;;;;;8.47;6.30;;;;;;;;;;5077145;28;20421;-80
2023/04/18 09:47:24;;;;;;;6.77;4.80;;;;;;;;;;5095666;28;20402;-81
2023/04/18 09:49:50;;;;;;;8.20;6.77;;;;;;;;;;5094622;28;20469;-81
2023/04/18 09:52:18;;;;;;;7.63;6.13;;;;;;;;;;5076828;28;20445;-80
2023/04/18 09:54:45;;;;;;;7.10;5.63;;;;;;;;;;5076817;28;20410;-81
2023/04/18 09:57:12;;;;;;;7.63;5.57;;;;;;;;;;5057322;28;20879;-80
2023/04/18 09:59:50;;;;;;;6.53;5.30;;;;;;;;;;5056651;28;20423;-81
2023/04/18 10:02:21;;;;;;;7.60;5.73;;;;;;;;;;5056356;28;20506;-81
2023/04/18 10:04:50;;;;;;;7.97;6.27;;;;;;;;;;5057059;28;20859;-81
2023/04/18 10:07:16;;;;;;;7.43;5.40;;;;;;;;;;5074942;28;20403;-81
2023/04/18 10:09:45;;;;;;;6.83;6.10;;;;;;;;;;5056602;28;20411;-81
2023/04/18 10:12:12;;;;;;;7.70;6.90;;;;;;;;;;5056932;28;20935;-82
2023/04/18 10:14:41;;;;;;;7.40;5.67;;;;;;;;;;5074603;28;20445;-81
2023/04/18 10:17:08;;;;;;;5.97;5.37;;;;;;;;;;5056890;28;20603;-82
2023/04/18 10:19:34;;;;;;;6.07;5.40;;;;;;;;;;5040051;28;20539;-81
2023/04/18 10:22:01;;;;;;;6.67;5.60;;;;;;;;;;5056286;28;20760;-81
2023/04/18 10:24:49;;;;;;;5.63;5.07;;;;;;;;;;5056521;28;20496;-81
2023/04/18 10:27:15;;;;;;;6.03;5.40;;;;;;;;;;5056413;28;20401;-82
2023/04/18 10:29:52;;;;;;;5.93;5.33;;;;;;;;;;5056666;28;20411;-82
2023/04/18 10:32:19;;;;;;;6.30;5.43;;;;;;;;;;5074628;28;20402;-82
2023/04/18 10:34:46;;;;;;;5.70;5.10;;;;;;;;;;5039879;28;20907;-81
2023/04/18 10:37:12;;;;;;;6.43;4.97;;;;;;;;;;5076255;28;20433;-82
2023/04/18 10:40:01;;;;;;;5.20;4.77;;;;;;;;;;5077736;28;20399;-81
2023/04/18 10:42:46;;;;;;;5.80;5.20;;;;;;;;;;5080756;28;20411;-82
2023/04/18 10:45:18;;;;;;;6.20;5.43;;;;;;;;;;5076994;28;20410;-81
2023/04/18 10:47:44;;;;;;;6.10;5.50;;;;;;;;;;5059207;28;20465;-81
2023/04/18 10:50:11;;;;;;;6.70;5.63;;;;;;;;;;5077015;28;20575;-81
2023/04/18 10:52:37;;;;;;;6.50;5.10;;;;;;;;;;5059562;28;20807;-81
2023/04/18 10:55:18;;;;;;;5.73;5.07;;;;;;;;;;5059123;28;20414;-81
2023/04/18 10:57:45;;;;;;;6.23;5.63;;;;;;;;;;5060472;28;20843;-81
2023/04/18 11:00:12;;;;;;;7.53;5.30;;;;;;;;;;5059376;28;20419;-81
2023/04/18 11:02:39;;;;;;;7.13;4.93;;;;;;;;;;5042879;28;20419;-82
2023/04/18 11:05:05;;;;;;;4.93;4.53;;;;;;;;;;5059334;28;20418;-82
2023/04/18 11:07:32;;;;;;;5.40;4.93;;;;;;;;;;5059682;28;20483;-81
2023/04/18 11:09:58;;;;;;;6.83;5.40;;;;;;;;;;5059152;28;20795;-82
2023/04/18 11:15:46;;;;;;;5.30;4.80;;;;;;;;;;5076459;28;20532;-81
2023/04/18 11:18:12;;;;;;;5.70;4.63;;;;;;;;;;5076713;28;20434;-81
2023/04/18 11:20:40;;;;;;;5.57;4.83;;;;;;;;;;5058994;28;20751;-81
2023/04/18 11:23:15;;;;;;;6.93;5.40;;;;;;;;;;5058377;28;20472;-83
2023/04/18 11:25:43;;;;;;;6.13;5.53;;;;;;;;;;5059080;28;20426;-81
2023/04/18 11:28:12;;;;;;;7.53;6.10;;;;;;;;;;5058812;28;20465;-82
2023/04/18 11:30:39;;;;;;;6.50;5.83;;;;;;;;;;5042599;28;20709;-81
2023/04/18 11:33:07;;;;;;;6.43;5.27;;;;;;;;;;5058528;28;20416;-82
2023/04/18 11:35:36;;;;;;;8.53;5.00;;;;;;;;;;5076276;28;20459;-81
2023/04/18 11:38:02;;;;;;;6.37;5.60;;;;;;;;;;5076514;28;20439;-81
2023/04/18 11:40:28;;;;;;;5.80;5.00;;;;;;;;;;5058047;28;20789;-81
2023/04/18 11:42:54;;;;;;;6.63;5.97;;;;;;;;;;5058980;28;20447;-81
2023/04/18 11:45:20;;;;;;;5.73;4.90;;;;;;;;;;5058526;28;20405;-81
2023/04/18 11:47:46;;;;;;;5.73;5.23;;;;;;;;;;5057834;28;20448;-81
2023/04/18 11:50:13;;;;;;;6.20;5.57;;;;;;;;;;5058552;28;20477;-82
2023/04/18 11:52:40;;;;;;;8.80;5.53;;;;;;;;;;5041915;28;20415;-81
2023/04/18 11:55:12;;;;;;;7.07;6.37;;;;;;;;;;5058176;28;20411;-81
2023/04/18 11:57:38;;;;;;;7.17;5.47;;;;;;;;;;5076127;28;20386;-82
2023/04/18 12:00:08;;;;;;;7.00;5.97;;;;;;;;;;5041387;28;20393;-81
2023/04/18 12:02:42;;;;;;;6.30;5.47;;;;;;;;;;5042074;28;20941;-81
2023/04/18 12:05:09;;;;;;;6.30;5.70;;;;;;;;;;5075742;28;20399;-81
2023/04/18 12:07:39;;;;;;;7.43;6.03;;;;;;;;;;5078171;28;20386;-81
2023/04/18 12:10:23;;;;;;;5.73;5.07;;;;;;;;;;5077736;28;20833;-81
2023/04/18 12:12:59;;;;;;;6.53;4.90;;;;;;;;;;5058532;28;20411;-81
2023/04/18 12:15:29;;;;;;;8.17;6.80;;;;;;;;;;5057732;28;20445;-80
2023/04/18 12:17:59;;;;;;;5.90;5.30;;;;;;;;;;5041976;28;20397;-81
2023/04/18 12:20:33;;;;;;;7.67;6.10;;;;;;;;;;5057252;28;20446;-82
2023/04/18 12:22:59;;;;;;;6.50;5.90;;;;;;;;;;5057850;28;20780;-81
2023/04/18 12:25:25;;;;;;;5.87;5.30;;;;;;;;;;5057492;28;20797;-81
2023/04/18 12:27:52;;;;;;;6.90;6.20;;;;;;;;;;5057769;28;20502;-81
2023/04/18 12:30:21;;;;;;;5.93;5.10;;;;;;;;;;5075218;28;20865;-82
2023/04/18 12:32:48;;;;;;;6.73;6.03;;;;;;;;;;5057788;28;20741;-81
2023/04/18 12:35:14;;;;;;;7.30;6.60;;;;;;;;;;5057288;28;20439;-82
2023/04/18 12:37:41;;;;;;;6.53;5.87;;;;;;;;;;5075268;28;20405;-82
2023/04/18 12:40:08;;;;;;;7.70;6.60;;;;;;;;;;5075272;28;20514;-81
2023/04/18 12:42:34;;;;;;;8.83;6.57;;;;;;;;;;5057326;28;20374;-81
2023/04/18 12:45:02;;;;;;;10.33;7.60;;;;;;;;;;5040685;28;20415;-81
2023/04/18 12:47:28;;;;;;;8.23;5.80;;;;;;;;;;5057717;28;20413;-82
2023/04/18 12:49:54;;;;;;;6.83;6.00;;;;;;;;;;5056878;28;20838;-81
2023/04/18 12:52:20;;;;;;;7.10;6.37;;;;;;;;;;5074901;28;20378;-81
2023/04/18 12:54:46;;;;;;;9.97;6.30;;;;;;;;;;5075108;28;20751;-81
2023/04/18 12:57:12;;;;;;;8.50;6.50;;;;;;;;;;5056990;28;20512;-84
2023/04/18 12:59:38;;;;;;;6.63;5.93;;;;;;;;;;5057034;28;20418;-82
2023/04/18 13:02:04;;;;;;;6.53;5.83;;;;;;;;;;5040681;28;20465;-82
2023/04/18 13:04:30;;;;;;;7.43;6.73;;;;;;;;;;5057016;28;20449;-82
2023/04/18 13:06:56;;;;;;;8.33;6.73;;;;;;;;;;5056795;28;20422;-82
2023/04/18 13:09:22;;;;;;;7.47;6.53;;;;;;;;;;5074490;28;20382;-81
2023/04/18 13:11:48;;;;;;;8.43;6.73;;;;;;;;;;5040338;28;20397;-84
2023/04/18 13:14:15;;;;;;;7.23;6.53;;;;;;;;;;5040780;28;20385;-84
2023/04/18 13:16:41;;;;;;;6.90;5.97;;;;;;;;;;5075035;28;20437;-80
2023/04/18 13:19:07;;;;;;;8.40;6.70;;;;;;;;;;5056784;28;20390;-81
2023/04/18 13:21:33;;;;;;;7.23;6.50;;;;;;;;;;5074147;28;21210;-80
2023/04/18 13:23:59;;;;;;;6.70;5.73;;;;;;;;;;5040302;28;20423;-79
2023/04/18 13:26:26;;;;;;;8.90;6.90;;;;;;;;;;5056411;28;20415;-80
2023/04/18 13:28:52;;;;;;;7.53;6.43;;;;;;;;;;5057104;28;20414;-80
2023/04/18 13:31:18;;;;;;;10.63;6.23;;;;;;;;;;5073972;28;20416;-82
2023/04/18 13:33:44;;;;;;;6.87;6.17;;;;;;;;;;5056156;28;20446;-81
2023/04/18 13:36:10;;;;;;;7.07;5.97;;;;;;;;;;5074092;28;20429;-81
2023/04/18 13:38:36;;;;;;;6.93;6.30;;;;;;;;;;5056244;28;20385;-81
2023/04/18 13:41:02;;;;;;;7.33;6.30;;;;;;;;;;5039556;28;20525;-81
2023/04/18 13:43:28;;;;;;;5.97;4.67;;;;;;;;;;5039411;28;20390;-81
2023/04/18 13:45:54;;;;;;;6.10;4.67;;;;;;;;;;5039258;28;20389;-81
2023/04/18 13:48:20;;;;;;;6.13;5.10;;;;;;;;;;5055304;28;20397;-81
2023/04/18 13:50:47;;;;;;;5.37;4.87;;;;;;;;;;5057356;28;20862;-80
2023/04/18 13:53:15;;;;;;;4.90;4.40;;;;;;;;;;5045194;28;20476;-82
2023/04/18 13:55:41;;;;;;;4.83;4.33;;;;;;;;;;5039854;28;20524;-82
2023/04/18 13:58:07;;;;;;;5.90;5.07;;;;;;;;;;5056197;28;20390;-81
2023/04/18 14:00:34;;;;;;;5.43;4.73;;;;;;;;;;5055550;28;20419;-82
2023/04/18 14:03:00;;;;;;;5.30;4.80;;;;;;;;;;5055661;28;20415;-82
2023/04/18 14:05:26;;;;;;;8.97;5.13;;;;;;;;;;5055884;28;20398;-82
2023/04/18 14:07:52;;;;;;;4.67;4.27;;;;;;;;;;5039300;28;20447;-82
2023/04/18 14:10:20;;;;;;;5.83;5.20;;;;;;;;;;5055432;28;20427;-82
2023/04/18 14:12:46;;;;;;;5.87;5.37;;;;;;;;;;5078008;28;20413;-83
2023/04/18 14:15:12;;;;;;;5.30;4.80;;;;;;;;;;5043336;28;20393;-82
2023/04/18 14:17:38;;;;;;;7.63;6.93;;;;;;;;;;5043016;28;20480;-82
2023/04/18 14:20:04;;;;;;;7.90;7.10;;;;;;;;;;5043314;28;20440;-82
2023/04/18 14:22:31;;;;;;;8.53;7.63;;;;;;;;;;5059734;28;20498;-81
2023/04/18 14:24:57;;;;;;;10.10;9.10;;;;;;;;;;5043151;28;20389;-81
2023/04/18 14:27:24;;;;;;;9.07;7.83;;;;;;;;;;5059748;28;20378;-82
2023/04/18 14:29:50;;;;;;;9.20;7.10;;;;;;;;;;5059570;28;20418;-81
2023/04/18 14:32:17;;;;;;;9.20;7.40;;;;;;;;;;5059692;28;20572;-81